Terminal Aerodrome Forecast
Issued by NWS St Louis, MO

Home | Current Version | Previous Version | Text Only | Print | Product List | Glossary On
Versions: 1 2 3 4 5 6 7 8 9 10 11 12 13 14 15 16 17 18
000
FTUS43 KLSX 242342
TAFCOU
TAF
KCOU 242342Z 2500/2524 17010KT P6SM VCTS SCT050CB BKN100
      TEMPO 2500/2501 4SM -SHRA BKN040
     FM250200 17005KT P6SM SCT100 BKN250
     FM251200 18005KT P6SM VCSH BKN070
     FM251500 21006KT P6SM SCT030 BKN100
     FM251800 22008KT P6SM VCTS SCT045CB BKN120=

USA.gov is the U.S. government's official web portal to all federal, state and local government web resources and services.